Map

Track Data

SID SEASON NUMBER BASIN SUBBASIN NAME ISO_TIME NATURE LAT LON WMO_WIND WMO_PRES WMO_AGENCY TRACK_TYPE DIST2LAND LANDFALL IFLAG USA_AGENCY USA_ATCF_ID USA_LAT USA_LON USA_RECORD USA_STATUS USA_WIND USA_PRES USA_SSHS USA_R34_NE USA_R34_SE USA_R34_SW USA_R34_NW USA_R50_NE USA_R50_SE USA_R50_SW USA_R50_NW USA_R64_NE USA_R64_SE USA_R64_SW USA_R64_NW USA_POCI USA_ROCI USA_RMW USA_EYE TOKYO_LAT TOKYO_LON TOKYO_GRADE TOKYO_WIND TOKYO_PRES TOKYO_R50_DIR TOKYO_R50_LONG TOKYO_R50_SHORT TOKYO_R30_DIR TOKYO_R30_LONG TOKYO_R30_SHORT TOKYO_LAND CMA_LAT CMA_LON CMA_CAT CMA_WIND CMA_PRES HKO_LAT HKO_LON HKO_CAT HKO_WIND HKO_PRES NEWDELHI_LAT NEWDELHI_LON NEWDELHI_GRADE NEWDELHI_WIND NEWDELHI_PRES NEWDELHI_CI NEWDELHI_DP NEWDELHI_POCI REUNION_LAT REUNION_LON REUNION_TYPE REUNION_WIND REUNION_PRES REUNION_TNUM REUNION_CI REUNION_RMW REUNION_R34_NE REUNION_R34_SE REUNION_R34_SW REUNION_R34_NW REUNION_R50_NE REUNION_R50_SE REUNION_R50_SW REUNION_R50_NW REUNION_R64_NE REUNION_R64_SE REUNION_R64_SW REUNION_R64_NW BOM_LAT BOM_LON BOM_TYPE BOM_WIND BOM_PRES BOM_TNUM BOM_CI BOM_RMW BOM_R34_NE BOM_R34_SE BOM_R34_SW BOM_R34_NW BOM_R50_NE BOM_R50_SE BOM_R50_SW BOM_R50_NW BOM_R64_NE BOM_R64_SE BOM_R64_SW BOM_R64_NW BOM_ROCI BOM_POCI BOM_EYE BOM_POS_METHOD BOM_PRES_METHOD NADI_LAT NADI_LON NADI_CAT NADI_WIND NADI_PRES WELLINGTON_LAT WELLINGTON_LON WELLINGTON_WIND WELLINGTON_PRES DS824_LAT DS824_LON DS824_STAGE DS824_WIND DS824_PRES TD9636_LAT TD9636_LON TD9636_STAGE TD9636_WIND TD9636_PRES TD9635_LAT TD9635_LON TD9635_WIND TD9635_PRES TD9635_ROCI NEUMANN_LAT NEUMANN_LON NEUMANN_CLASS NEUMANN_WIND NEUMANN_PRES MLC_LAT MLC_LON MLC_CLASS MLC_WIND MLC_PRES USA_GUST BOM_GUST BOM_GUST_PER REUNION_GUST REUNION_GUST_PER USA_SEAHGT USA_SEARAD_NE USA_SEARAD_SE USA_SEARAD_SW USA_SEARAD_NW STORM_SPEED STORM_DIR
1889357N14087 1889 43 NI BB NOT_NAMED 1889-12-23 00:00:00 TS 14.2000 86.9000 main 547 541 _________O____ -1 14.2000 86.9000 TC 45 2 290
1889357N14087 1889 43 NI BB NOT_NAMED 1889-12-23 03:00:00 TS 14.2333 86.8067 main 541 525 _________PO___ -1 14.2500 86.7600 TC 45 14.2000 86.9000 3 3 288
1889357N14087 1889 43 NI BB NOT_NAMED 1889-12-23 06:00:00 TS 14.2800 86.6507 main 525 510 _________OP___ -1 14.3000 86.6000 TC 45 14.2501 86.7266 3 3 286
1889357N14087 1889 43 NI BB NOT_NAMED 1889-12-23 09:00:00 TS 14.3286 86.4697 main 510 487 _________PP___ -1 14.3500 86.4075 TC 45 14.3001 86.5526 3 4 285
1889357N14087 1889 43 NI BB NOT_NAMED 1889-12-23 12:00:00 TS 14.3750 86.2886 main 487 473 _________OP___ -1 14.4000 86.2000 TC 45 14.3501 86.3772 3 4 285
1889357N14087 1889 43 NI BB NOT_NAMED 1889-12-23 15:00:00 TS 14.4250 86.1000 main 473 451 _________PO___ -1 14.4500 86.0000 TC 45 14.4000 86.2000 3 4 285
1889357N14087 1889 43 NI BB NOT_NAMED 1889-12-23 18:00:00 TS 14.4749 85.9097 main 451 433 _________OP___ -1 14.5000 85.8000 TC 45 14.4499 86.0193 3 4 285
1889357N14087 1889 43 NI BB NOT_NAMED 1889-12-23 21:00:00 TS 14.5249 85.7187 main 433 409 _________PP___ -1 14.5500 85.6075 TC 45 14.4998 85.8299 3 4 285
1889357N14087 1889 43 NI BB NOT_NAMED 1889-12-24 00:00:00 TS 14.5749 85.5128 main 409 391 _________OP___ -1 14.6000 85.4000 TC 45 14.5499 85.6256 3 4 283
1889357N14087 1889 43 NI BB NOT_NAMED 1889-12-24 03:00:00 TS 14.6250 85.2825 main 391 358 _________PO___ -1 14.6500 85.1650 TC 45 14.6000 85.4000 3 5 282
1889357N14087 1889 43 NI BB NOT_NAMED 1889-12-24 06:00:00 TS 14.6770 85.0233 main 358 341 _________OP___ -1 14.7000 84.9000 TC 45 14.6541 85.1466 3 5 281
1889357N14087 1889 43 NI BB NOT_NAMED 1889-12-24 09:00:00 TS 14.7288 84.7363 main 333 309 _________PP___ -1 14.7500 84.6000 TC 45 14.7075 84.8725 3 6 280
1889357N14087 1889 43 NI BB NOT_NAMED 1889-12-24 12:00:00 TS 14.7786 84.4436 main 301 286 _________OP___ -1 14.8000 84.3000 TC 45 14.7572 84.5872 3 6 280
1889357N14087 1889 43 NI BB NOT_NAMED 1889-12-24 15:00:00 TS 14.8287 84.1750 main 286 256 _________PO___ -1 14.8574 84.0500 TC 45 14.8000 84.3000 3 5 280
1889357N14087 1889 43 NI BB NOT_NAMED 1889-12-24 18:00:00 TS 14.8681 83.9105 main 256 235 _________OP___ -1 14.9000 83.8000 TC 45 14.8362 84.0209 3 5 276
1889357N14087 1889 43 NI BB NOT_NAMED 1889-12-24 21:00:00 TS 14.8862 83.6212 main 235 218 _________PP___ -1 14.9075 83.5000 TC 45 14.8649 83.7425 3 6 273
1889357N14087 1889 43 NI BB NOT_NAMED 1889-12-25 00:00:00 TS 14.8931 83.3339 main 218 208 _________OP___ -1 14.9000 83.2000 TC 45 14.8862 83.4678 3 5 271
1889357N14087 1889 43 NI BB NOT_NAMED 1889-12-25 03:00:00 TS 14.9000 83.0712 main 208 193 _________PO___ -1 14.8999 82.9425 TC 45 14.9000 83.2000 3 5 271
1889357N14087 1889 43 NI BB NOT_NAMED 1889-12-25 06:00:00 TS 14.9035 82.8194 main 193 183 _________OP___ -1 14.9000 82.7000 TC 45 14.9071 82.9387 3 5 270
1889357N14087 1889 43 NI BB NOT_NAMED 1889-12-25 09:00:00 TS 14.9037 82.5712 main 183 169 _________PP___ -1 14.8999 82.4575 TC 45 14.9074 82.6849 3 5 270
1889357N14087 1889 43 NI BB NOT_NAMED 1889-12-25 12:00:00 TS 14.9020 82.3194 main 169 155 _________OP___ -1 14.9000 82.2000 TC 45 14.9040 82.4387 3 5 270
1889357N14087 1889 43 NI BB NOT_NAMED 1889-12-25 15:00:00 TS 14.9000 82.0425 main 147 131 _________PO___ -1 14.9001 81.8850 TC 45 14.9000 82.2000 3 5 270
1889357N14087 1889 43 NI BB NOT_NAMED 1889-12-25 18:00:00 TS 14.8988 81.8105 main 131 116 _________OP___ -1 14.9000 81.6000 TC 45 14.8979 81.9685 3 4 270
1889357N14087 1889 43 NI BB NOT_NAMED 1889-12-25 21:00:00 TS 14.8986 81.6125 main 116 110 _________PP___ -1 14.9000 81.4175 TC 45 14.8977 81.7425 3 4 270
1889357N14087 1889 43 NI BB NOT_NAMED 1889-12-26 00:00:00 TS 14.8991 81.4469 main 104 99 _________OP___ -1 14.9000 81.3000 TC 45 14.8986 81.5203 3 3 270
1889357N14087 1889 43 NI BB NOT_NAMED 1889-12-26 03:00:00 NR 14.9000 81.3000 main 99 __________O___ -1 TC 14.9000 81.3000 3 3 270

About IBTrACS Database

This database is a web-friendly format of International Best Track Archive for Climate Stewardship (IBTrACS), a global best track data archive curated by NOAA dating back to 1842.

Updated: 2021-10-08